Regulus — ZGAS3 — position and weather

sailwx.info

Track history (hours):
 
Tides and Currents Weather Stations Pressure Air Temp Water Temp Dewpoint Dewpoint Depression Visibility Wind Speed Wind Dir Waves Ship Positions

Regulus

Last reported at 2015-Jul-29 13:27 UTC. Time now 2015-Jul-29 13:35 UTC.
Position N 42°17' E 018°51'.

Length 40 m; draft 2.7 m.

Type: Pleasure craft. MMSI: 319474000.

Date/timePositionNaut miles runAvg speedWind from/ knotsBaromVisibWave heightAir tempDewpointWater temp
2015-Jul-29 13:27N 42°17' E 018°51'6 6.9
2015-Jul-29 12:33N 42°18' E 018°43'1110.5
2015-Jul-29 11:31N 42°26' E 018°33'7 1.7
2015-Jul-29 07:15N 42°24' E 018°42'0 0.0
2015-Jul-29 06:33N 42°24' E 018°42'0 0.0
2015-Jul-29 05:33N 42°24' E 018°42'0 0.0
2015-Jul-29 04:33N 42°24' E 018°42'0 0.0
2015-Jul-29 03:33N 42°24' E 018°42'0 0.0
2015-Jul-29 02:33N 42°24' E 018°42'0 0.0
2015-Jul-29 01:33N 42°24' E 018°42'0 0.0
2015-Jul-29 00:33N 42°24' E 018°42'0 0.0
2015-Jul-28 23:24N 42°24' E 018°42'0 0.0
2015-Jul-28 22:33N 42°24' E 018°42'0 0.0
2015-Jul-28 21:33N 42°24' E 018°42'0 0.0
2015-Jul-28 20:24N 42°24' E 018°42'0 0.0
2015-Jul-28 19:33N 42°24' E 018°42'0 0.0
2015-Jul-28 18:33N 42°24' E 018°42'0 0.0
2015-Jul-28 17:33N 42°24' E 018°42'0 0.0
2015-Jul-28 16:33N 42°24' E 018°42'2 2.0
2015-Jul-28 15:33N 42°26' E 018°41'4 4.4
2015-Jul-28 14:33N 42°30' E 018°41'0 0.0
2015-Jul-28 13:33N 42°30' E 018°41'2 1.9
2015-Jul-28 12:33N 42°29' E 018°43'3 3.0
2015-Jul-28 11:33N 42°26' E 018°41'0 0.0
2015-Jul-28 10:22N 42°26' E 018°41'0 0.0
2015-Jul-28 09:22N 42°26' E 018°41'0 0.0
2015-Jul-28 08:31N 42°26' E 018°41'0 0.0
2015-Jul-28 07:31N 42°26' E 018°41'0 0.0
2015-Jul-28 06:31N 42°26' E 018°41'0 0.0
2015-Jul-28 05:31N 42°26' E 018°41'0 0.0
2015-Jul-28 04:31N 42°26' E 018°41'0 0.0
2015-Jul-28 03:31N 42°26' E 018°41'0 0.0
2015-Jul-28 02:31N 42°26' E 018°41'0 0.0
2015-Jul-28 01:31N 42°26' E 018°41'0 0.0
2015-Jul-28 00:31N 42°26' E 018°41'0 0.0
2015-Jul-27 23:31N 42°26' E 018°41'0 0.0
2015-Jul-27 22:31N 42°26' E 018°41'0 0.0
2015-Jul-27 21:31N 42°26' E 018°41'0 0.0
2015-Jul-27 20:31N 42°26' E 018°41'0 0.0
2015-Jul-27 19:31N 42°26' E 018°41'0 0.0
2015-Jul-27 18:31N 42°26' E 018°41'0 0.0
2015-Jul-27 17:31N 42°26' E 018°41'0 0.0
2015-Jul-27 16:31N 42°26' E 018°41'0 0.0
2015-Jul-27 15:31N 42°26' E 018°41'0 0.0
2015-Jul-27 14:31N 42°26' E 018°41'0 0.0
2015-Jul-27 13:31N 42°26' E 018°41'0 0.0
2015-Jul-27 12:31N 42°26' E 018°41'0 0.0
2015-Jul-27 11:31N 42°26' E 018°41'0 0.0
2015-Jul-27 10:31N 42°26' E 018°41'0 0.0
2015-Jul-27 09:31N 42°26' E 018°41'0 0.0
2015-Jul-27 08:31N 42°26' E 018°41'0 0.0
2015-Jul-27 07:31N 42°26' E 018°41'0 0.0
2015-Jul-27 06:31N 42°26' E 018°41'0 0.0
2015-Jul-27 05:31N 42°26' E 018°41'0 0.0
2015-Jul-27 04:31N 42°26' E 018°41'0 0.0
2015-Jul-27 03:31N 42°26' E 018°41'0 0.0
2015-Jul-27 02:31N 42°26' E 018°41'0 0.0
2015-Jul-27 01:31N 42°26' E 018°41'0 0.0
2015-Jul-27 00:31N 42°26' E 018°41'0 0.0
2015-Jul-26 23:31N 42°26' E 018°41'0 0.0
2015-Jul-26 22:31N 42°26' E 018°41'0 0.0
2015-Jul-26 21:22N 42°26' E 018°41'0 0.0
2015-Jul-26 20:31N 42°26' E 018°41'0 0.0
2015-Jul-26 19:31N 42°26' E 018°41'0 0.0
2015-Jul-26 18:31N 42°26' E 018°41'0 0.0
2015-Jul-26 17:31N 42°26' E 018°41'0 0.0
2015-Jul-26 16:31N 42°26' E 018°41'0 0.0
2015-Jul-26 15:31N 42°26' E 018°41'0 0.0
2015-Jul-26 14:31N 42°26' E 018°41'0 0.0
2015-Jul-26 13:31N 42°26' E 018°41'0 0.0
2015-Jul-26 12:31N 42°26' E 018°41'0 0.0
2015-Jul-26 11:31N 42°26' E 018°41'0 0.0
2015-Jul-26 10:32N 42°26' E 018°41'0 0.0
2015-Jul-26 09:32N 42°26' E 018°41'0 0.0
2015-Jul-26 08:32N 42°26' E 018°41'0 0.0
2015-Jul-26 07:33N 42°26' E 018°41'0 0.0
2015-Jul-26 06:33N 42°26' E 018°41'0 0.0
2015-Jul-26 05:33N 42°26' E 018°41'0 0.0
2015-Jul-26 04:33N 42°26' E 018°41'0 0.0
2015-Jul-26 03:33N 42°26' E 018°41'0 0.0
2015-Jul-26 02:33N 42°26' E 018°41'0 0.0
2015-Jul-26 01:33N 42°26' E 018°41'0 0.0
2015-Jul-26 00:33N 42°26' E 018°41'0 0.0
2015-Jul-25 23:33N 42°26' E 018°41'0 0.0
2015-Jul-25 22:33N 42°26' E 018°41'0 0.0
2015-Jul-25 21:33N 42°26' E 018°41'0 0.0
2015-Jul-25 20:33N 42°26' E 018°41'0 0.0
2015-Jul-25 19:33N 42°26' E 018°41'0 0.0
2015-Jul-25 18:33N 42°26' E 018°41'0 0.0
2015-Jul-25 17:33N 42°26' E 018°41'0 0.0
2015-Jul-25 16:33N 42°26' E 018°41'0 0.0
2015-Jul-25 15:33N 42°26' E 018°41'0 0.0
2015-Jul-25 14:33N 42°26' E 018°41'0 0.0
2015-Jul-25 13:33N 42°26' E 018°41'0 0.0
2015-Jul-25 12:33N 42°26' E 018°41'  
Track history (hours):
 
Tides and Currents Weather Stations Pressure Air Temp Water Temp Dewpoint Dewpoint Depression Visibility Wind Speed Wind Dir Waves Ship Positions

Regulus

Last reported at 2015-Jul-29 13:27 UTC. Time now 2015-Jul-29 13:35 UTC.
Position N 42°17' E 018°51'.

Length 40 m; draft 2.7 m.

Type: Pleasure craft. MMSI: 319474000.

Date/timePositionNaut miles runAvg speedWind from/ knotsBaromVisibWave heightAir tempDewpointWater temp
2015-Jul-29 13:27N 42°17' E 018°51'6 6.9
2015-Jul-29 12:33N 42°18' E 018°43'1110.5
2015-Jul-29 11:31N 42°26' E 018°33'7 1.7
2015-Jul-29 07:15N 42°24' E 018°42'0 0.0
2015-Jul-29 06:33N 42°24' E 018°42'0 0.0
2015-Jul-29 05:33N 42°24' E 018°42'0 0.0
2015-Jul-29 04:33N 42°24' E 018°42'0 0.0
2015-Jul-29 03:33N 42°24' E 018°42'0 0.0
2015-Jul-29 02:33N 42°24' E 018°42'0 0.0
2015-Jul-29 01:33N 42°24' E 018°42'0 0.0
2015-Jul-29 00:33N 42°24' E 018°42'0 0.0
2015-Jul-28 23:24N 42°24' E 018°42'0 0.0
2015-Jul-28 22:33N 42°24' E 018°42'0 0.0
2015-Jul-28 21:33N 42°24' E 018°42'0 0.0
2015-Jul-28 20:24N 42°24' E 018°42'0 0.0
2015-Jul-28 19:33N 42°24' E 018°42'0 0.0
2015-Jul-28 18:33N 42°24' E 018°42'0 0.0
2015-Jul-28 17:33N 42°24' E 018°42'0 0.0
2015-Jul-28 16:33N 42°24' E 018°42'2 2.0
2015-Jul-28 15:33N 42°26' E 018°41'4 4.4
2015-Jul-28 14:33N 42°30' E 018°41'0 0.0
2015-Jul-28 13:33N 42°30' E 018°41'2 1.9
2015-Jul-28 12:33N 42°29' E 018°43'3 3.0
2015-Jul-28 11:33N 42°26' E 018°41'0 0.0
2015-Jul-28 10:22N 42°26' E 018°41'0 0.0
2015-Jul-28 09:22N 42°26' E 018°41'0 0.0
2015-Jul-28 08:31N 42°26' E 018°41'0 0.0
2015-Jul-28 07:31N 42°26' E 018°41'0 0.0
2015-Jul-28 06:31N 42°26' E 018°41'0 0.0
2015-Jul-28 05:31N 42°26' E 018°41'0 0.0
2015-Jul-28 04:31N 42°26' E 018°41'0 0.0
2015-Jul-28 03:31N 42°26' E 018°41'0 0.0
2015-Jul-28 02:31N 42°26' E 018°41'0 0.0
2015-Jul-28 01:31N 42°26' E 018°41'0 0.0
2015-Jul-28 00:31N 42°26' E 018°41'0 0.0
2015-Jul-27 23:31N 42°26' E 018°41'0 0.0
2015-Jul-27 22:31N 42°26' E 018°41'0 0.0
2015-Jul-27 21:31N 42°26' E 018°41'0 0.0
2015-Jul-27 20:31N 42°26' E 018°41'0 0.0
2015-Jul-27 19:31N 42°26' E 018°41'0 0.0
2015-Jul-27 18:31N 42°26' E 018°41'0 0.0
2015-Jul-27 17:31N 42°26' E 018°41'0 0.0
2015-Jul-27 16:31N 42°26' E 018°41'0 0.0
2015-Jul-27 15:31N 42°26' E 018°41'0 0.0
2015-Jul-27 14:31N 42°26' E 018°41'0 0.0
2015-Jul-27 13:31N 42°26' E 018°41'0 0.0
2015-Jul-27 12:31N 42°26' E 018°41'0 0.0
2015-Jul-27 11:31N 42°26' E 018°41'0 0.0
2015-Jul-27 10:31N 42°26' E 018°41'0 0.0
2015-Jul-27 09:31N 42°26' E 018°41'0 0.0
2015-Jul-27 08:31N 42°26' E 018°41'0 0.0
2015-Jul-27 07:31N 42°26' E 018°41'0 0.0
2015-Jul-27 06:31N 42°26' E 018°41'0 0.0
2015-Jul-27 05:31N 42°26' E 018°41'0 0.0
2015-Jul-27 04:31N 42°26' E 018°41'0 0.0
2015-Jul-27 03:31N 42°26' E 018°41'0 0.0
2015-Jul-27 02:31N 42°26' E 018°41'0 0.0
2015-Jul-27 01:31N 42°26' E 018°41'0 0.0
2015-Jul-27 00:31N 42°26' E 018°41'0 0.0
2015-Jul-26 23:31N 42°26' E 018°41'0 0.0
2015-Jul-26 22:31N 42°26' E 018°41'0 0.0
2015-Jul-26 21:22N 42°26' E 018°41'0 0.0
2015-Jul-26 20:31N 42°26' E 018°41'0 0.0
2015-Jul-26 19:31N 42°26' E 018°41'0 0.0
2015-Jul-26 18:31N 42°26' E 018°41'0 0.0
2015-Jul-26 17:31N 42°26' E 018°41'0 0.0
2015-Jul-26 16:31N 42°26' E 018°41'0 0.0
2015-Jul-26 15:31N 42°26' E 018°41'0 0.0
2015-Jul-26 14:31N 42°26' E 018°41'0 0.0
2015-Jul-26 13:31N 42°26' E 018°41'0 0.0
2015-Jul-26 12:31N 42°26' E 018°41'0 0.0
2015-Jul-26 11:31N 42°26' E 018°41'0 0.0
2015-Jul-26 10:32N 42°26' E 018°41'0 0.0
2015-Jul-26 09:32N 42°26' E 018°41'0 0.0
2015-Jul-26 08:32N 42°26' E 018°41'0 0.0
2015-Jul-26 07:33N 42°26' E 018°41'0 0.0
2015-Jul-26 06:33N 42°26' E 018°41'0 0.0
2015-Jul-26 05:33N 42°26' E 018°41'0 0.0
2015-Jul-26 04:33N 42°26' E 018°41'0 0.0
2015-Jul-26 03:33N 42°26' E 018°41'0 0.0
2015-Jul-26 02:33N 42°26' E 018°41'0 0.0
2015-Jul-26 01:33N 42°26' E 018°41'0 0.0
2015-Jul-26 00:33N 42°26' E 018°41'0 0.0
2015-Jul-25 23:33N 42°26' E 018°41'0 0.0
2015-Jul-25 22:33N 42°26' E 018°41'0 0.0
2015-Jul-25 21:33N 42°26' E 018°41'0 0.0
2015-Jul-25 20:33N 42°26' E 018°41'0 0.0
2015-Jul-25 19:33N 42°26' E 018°41'0 0.0
2015-Jul-25 18:33N 42°26' E 018°41'0 0.0
2015-Jul-25 17:33N 42°26' E 018°41'0 0.0
2015-Jul-25 16:33N 42°26' E 018°41'0 0.0
2015-Jul-25 15:33N 42°26' E 018°41'0 0.0
2015-Jul-25 14:33N 42°26' E 018°41'0 0.0
2015-Jul-25 13:33N 42°26' E 018°41'0 0.0
2015-Jul-25 12:33N 42°26' E 018°41'  

Dump ship's entire track history